sensor_id;sensor_type;location;lat;lon;timestamp;P1;durP1;ratioP1;P2;durP2;ratioP2
59514;SDS011;46082;43.034;-0.072;2022-07-09T00:00:01;1.58;;;1.48;;
59514;SDS011;46082;43.034;-0.072;2022-07-09T00:02:28;1.63;;;1.45;;
59514;SDS011;46082;43.034;-0.072;2022-07-09T00:04:54;4.22;;;1.20;;
59514;SDS011;46082;43.034;-0.072;2022-07-09T00:07:20;1.80;;;1.63;;
59514;SDS011;46082;43.034;-0.072;2022-07-09T00:09:46;1.58;;;1.48;;
59514;SDS011;46082;43.034;-0.072;2022-07-09T00:12:12;2.33;;;1.85;;
59514;SDS011;46082;43.034;-0.072;2022-07-09T00:14:39;1.38;;;1.23;;
59514;SDS011;46082;43.034;-0.072;2022-07-09T00:17:05;1.33;;;1.27;;
59514;SDS011;46082;43.034;-0.072;2022-07-09T00:19:31;3.45;;;1.73;;
59514;SDS011;46082;43.034;-0.072;2022-07-09T00:21:57;2.22;;;1.52;;
59514;SDS011;46082;43.034;-0.072;2022-07-09T00:24:23;1.63;;;1.50;;
59514;SDS011;46082;43.034;-0.072;2022-07-09T00:26:49;1.50;;;1.40;;
59514;SDS011;46082;43.034;-0.072;2022-07-09T00:29:15;1.48;;;1.38;;
59514;SDS011;46082;43.034;-0.072;2022-07-09T00:31:41;1.88;;;1.77;;
59514;SDS011;46082;43.034;-0.072;2022-07-09T00:34:08;1.58;;;1.45;;
59514;SDS011;46082;43.034;-0.072;2022-07-09T00:36:34;1.85;;;1.50;;
59514;SDS011;46082;43.034;-0.072;2022-07-09T00:39:00;1.70;;;1.60;;
59514;SDS011;46082;43.034;-0.072;2022-07-09T00:41:26;1.60;;;1.50;;
59514;SDS011;46082;43.034;-0.072;2022-07-09T00:43:52;1.80;;;1.70;;
59514;SDS011;46082;43.034;-0.072;2022-07-09T00:46:18;1.60;;;1.50;;
59514;SDS011;46082;43.034;-0.072;2022-07-09T00:48:45;1.83;;;1.45;;
59514;SDS011;46082;43.034;-0.072;2022-07-09T00:51:11;3.28;;;1.58;;
59514;SDS011;46082;43.034;-0.072;2022-07-09T00:53:38;1.67;;;1.58;;
59514;SDS011;46082;43.034;-0.072;2022-07-09T00:56:05;2.20;;;2.00;;
59514;SDS011;46082;43.034;-0.072;2022-07-09T00:58:31;1.92;;;1.83;;
59514;SDS011;46082;43.034;-0.072;2022-07-09T01:00:58;1.92;;;1.77;;
59514;SDS011;46082;43.034;-0.072;2022-07-09T01:03:24;1.90;;;1.60;;
59514;SDS011;46082;43.034;-0.072;2022-07-09T01:05:50;2.20;;;1.80;;
59514;SDS011;46082;43.034;-0.072;2022-07-09T01:08:16;2.55;;;1.65;;
59514;SDS011;46082;43.034;-0.072;2022-07-09T01:10:42;2.25;;;1.90;;
59514;SDS011;46082;43.034;-0.072;2022-07-09T01:13:09;1.75;;;1.65;;
59514;SDS011;46082;43.034;-0.072;2022-07-09T01:15:36;1.95;;;1.70;;
59514;SDS011;46082;43.034;-0.072;2022-07-09T01:18:03;1.42;;;1.33;;
59514;SDS011;46082;43.034;-0.072;2022-07-09T01:20:29;1.83;;;1.73;;
59514;SDS011;46082;43.034;-0.072;2022-07-09T01:22:55;1.65;;;1.55;;
59514;SDS011;46082;43.034;-0.072;2022-07-09T01:25:24;1.42;;;1.33;;
59514;SDS011;46082;43.034;-0.072;2022-07-09T01:27:53;1.77;;;1.67;;
59514;SDS011;46082;43.034;-0.072;2022-07-09T01:30:26;2.15;;;1.67;;
59514;SDS011;46082;43.034;-0.072;2022-07-09T01:32:53;1.70;;;1.60;;
59514;SDS011;46082;43.034;-0.072;2022-07-09T01:35:20;1.88;;;1.50;;
59514;SDS011;46082;43.034;-0.072;2022-07-09T01:37:46;2.40;;;2.17;;
59514;SDS011;46082;43.034;-0.072;2022-07-09T01:40:13;1.70;;;1.60;;
59514;SDS011;46082;43.034;-0.072;2022-07-09T01:42:39;4.95;;;1.95;;
59514;SDS011;46082;43.034;-0.072;2022-07-09T01:45:06;4.82;;;1.50;;
59514;SDS011;46082;43.034;-0.072;2022-07-09T01:47:32;2.70;;;1.90;;
59514;SDS011;46082;43.034;-0.072;2022-07-09T01:49:58;2.47;;;1.77;;
59514;SDS011;46082;43.034;-0.072;2022-07-09T01:52:24;2.25;;;1.75;;
59514;SDS011;46082;43.034;-0.072;2022-07-09T01:54:51;1.80;;;1.45;;
59514;SDS011;46082;43.034;-0.072;2022-07-09T01:57:17;1.90;;;1.80;;
59514;SDS011;46082;43.034;-0.072;2022-07-09T01:59:43;2.58;;;1.90;;
59514;SDS011;46082;43.034;-0.072;2022-07-09T02:02:09;1.50;;;1.40;;
59514;SDS011;46082;43.034;-0.072;2022-07-09T02:04:35;2.45;;;1.80;;
59514;SDS011;46082;43.034;-0.072;2022-07-09T02:07:02;3.05;;;1.58;;
59514;SDS011;46082;43.034;-0.072;2022-07-09T02:09:28;2.38;;;1.70;;
59514;SDS011;46082;43.034;-0.072;2022-07-09T02:11:54;2.33;;;2.03;;
59514;SDS011;46082;43.034;-0.072;2022-07-09T02:14:21;2.22;;;1.85;;
59514;SDS011;46082;43.034;-0.072;2022-07-09T02:16:47;3.15;;;1.55;;
59514;SDS011;46082;43.034;-0.072;2022-07-09T02:19:14;4.35;;;2.10;;
59514;SDS011;46082;43.034;-0.072;2022-07-09T02:21:40;1.95;;;1.73;;
59514;SDS011;46082;43.034;-0.072;2022-07-09T02:24:06;1.98;;;1.88;;
59514;SDS011;46082;43.034;-0.072;2022-07-09T02:26:32;2.30;;;2.10;;
59514;SDS011;46082;43.034;-0.072;2022-07-09T02:28:59;1.92;;;1.75;;
59514;SDS011;46082;43.034;-0.072;2022-07-09T02:31:26;1.63;;;1.52;;
59514;SDS011;46082;43.034;-0.072;2022-07-09T02:33:52;2.25;;;2.05;;
59514;SDS011;46082;43.034;-0.072;2022-07-09T02:36:19;2.30;;;2.10;;
59514;SDS011;46082;43.034;-0.072;2022-07-09T02:38:45;1.92;;;1.83;;
59514;SDS011;46082;43.034;-0.072;2022-07-09T02:41:11;6.53;;;1.88;;
59514;SDS011;46082;43.034;-0.072;2022-07-09T02:43:37;4.75;;;1.58;;
59514;SDS011;46082;43.034;-0.072;2022-07-09T02:46:03;1.60;;;1.50;;
59514;SDS011;46082;43.034;-0.072;2022-07-09T02:48:30;3.03;;;1.50;;
59514;SDS011;46082;43.034;-0.072;2022-07-09T02:50:56;1.40;;;1.30;;
59514;SDS011;46082;43.034;-0.072;2022-07-09T02:53:22;2.00;;;1.77;;
59514;SDS011;46082;43.034;-0.072;2022-07-09T02:55:49;1.67;;;1.58;;
59514;SDS011;46082;43.034;-0.072;2022-07-09T02:58:15;1.60;;;1.50;;
59514;SDS011;46082;43.034;-0.072;2022-07-09T03:00:41;1.85;;;1.75;;
59514;SDS011;46082;43.034;-0.072;2022-07-09T03:03:07;1.73;;;1.63;;
59514;SDS011;46082;43.034;-0.072;2022-07-09T03:05:34;1.50;;;1.40;;
59514;SDS011;46082;43.034;-0.072;2022-07-09T03:08:00;1.75;;;1.65;;
59514;SDS011;46082;43.034;-0.072;2022-07-09T03:10:27;2.47;;;1.73;;
59514;SDS011;46082;43.034;-0.072;2022-07-09T03:12:53;1.63;;;1.52;;
59514;SDS011;46082;43.034;-0.072;2022-07-09T03:15:19;1.73;;;1.63;;
59514;SDS011;46082;43.034;-0.072;2022-07-09T03:17:46;2.80;;;1.75;;
59514;SDS011;46082;43.034;-0.072;2022-07-09T03:20:12;2.15;;;1.85;;
59514;SDS011;46082;43.034;-0.072;2022-07-09T03:22:39;2.20;;;1.92;;
59514;SDS011;46082;43.034;-0.072;2022-07-09T03:25:05;1.90;;;1.80;;
59514;SDS011;46082;43.034;-0.072;2022-07-09T03:27:32;2.30;;;2.17;;
59514;SDS011;46082;43.034;-0.072;2022-07-09T03:29:58;1.77;;;1.65;;
59514;SDS011;46082;43.034;-0.072;2022-07-09T03:32:24;1.65;;;1.55;;
59514;SDS011;46082;43.034;-0.072;2022-07-09T03:34:51;1.45;;;1.35;;
59514;SDS011;46082;43.034;-0.072;2022-07-09T03:37:17;2.10;;;1.90;;
59514;SDS011;46082;43.034;-0.072;2022-07-09T03:39:43;1.42;;;1.33;;
59514;SDS011;46082;43.034;-0.072;2022-07-09T03:42:10;3.55;;;2.05;;
59514;SDS011;46082;43.034;-0.072;2022-07-09T03:44:36;2.00;;;1.90;;
59514;SDS011;46082;43.034;-0.072;2022-07-09T03:47:03;3.05;;;1.83;;
59514;SDS011;46082;43.034;-0.072;2022-07-09T03:49:29;2.65;;;1.60;;
59514;SDS011;46082;43.034;-0.072;2022-07-09T03:51:56;2.10;;;2.00;;
59514;SDS011;46082;43.034;-0.072;2022-07-09T03:54:22;1.60;;;1.50;;
59514;SDS011;46082;43.034;-0.072;2022-07-09T03:56:49;2.17;;;1.77;;
59514;SDS011;46082;43.034;-0.072;2022-07-09T03:59:15;2.30;;;1.92;;
59514;SDS011;46082;43.034;-0.072;2022-07-09T04:01:42;1.80;;;1.67;;
59514;SDS011;46082;43.034;-0.072;2022-07-09T04:04:08;1.60;;;1.50;;
59514;SDS011;46082;43.034;-0.072;2022-07-09T04:06:34;2.25;;;2.05;;
59514;SDS011;46082;43.034;-0.072;2022-07-09T04:09:00;2.03;;;1.85;;
59514;SDS011;46082;43.034;-0.072;2022-07-09T04:11:30;3.47;;;1.90;;
59514;SDS011;46082;43.034;-0.072;2022-07-09T04:13:57;2.25;;;1.85;;
59514;SDS011;46082;43.034;-0.072;2022-07-09T04:16:23;2.13;;;2.00;;
59514;SDS011;46082;43.034;-0.072;2022-07-09T04:18:49;2.33;;;2.13;;
59514;SDS011;46082;43.034;-0.072;2022-07-09T04:21:15;2.63;;;2.22;;
59514;SDS011;46082;43.034;-0.072;2022-07-09T04:23:42;3.08;;;1.77;;
59514;SDS011;46082;43.034;-0.072;2022-07-09T04:26:08;1.88;;;1.77;;
59514;SDS011;46082;43.034;-0.072;2022-07-09T04:28:37;2.03;;;1.85;;
59514;SDS011;46082;43.034;-0.072;2022-07-09T04:31:03;2.35;;;2.15;;
59514;SDS011;46082;43.034;-0.072;2022-07-09T04:33:30;2.53;;;2.20;;
59514;SDS011;46082;43.034;-0.072;2022-07-09T04:35:56;2.22;;;2.13;;
59514;SDS011;46082;43.034;-0.072;2022-07-09T04:38:22;1.95;;;1.85;;
59514;SDS011;46082;43.034;-0.072;2022-07-09T04:40:49;2.15;;;1.95;;
59514;SDS011;46082;43.034;-0.072;2022-07-09T04:43:16;1.80;;;1.70;;
59514;SDS011;46082;43.034;-0.072;2022-07-09T04:45:42;1.83;;;1.73;;
59514;SDS011;46082;43.034;-0.072;2022-07-09T04:48:08;2.47;;;1.98;;
59514;SDS011;46082;43.034;-0.072;2022-07-09T04:50:34;1.90;;;1.80;;
59514;SDS011;46082;43.034;-0.072;2022-07-09T04:53:00;1.85;;;1.75;;
59514;SDS011;46082;43.034;-0.072;2022-07-09T04:55:26;1.83;;;1.73;;
59514;SDS011;46082;43.034;-0.072;2022-07-09T04:57:53;1.90;;;1.80;;
59514;SDS011;46082;43.034;-0.072;2022-07-09T05:00:19;5.88;;;2.47;;
59514;SDS011;46082;43.034;-0.072;2022-07-09T05:02:45;2.22;;;2.00;;
59514;SDS011;46082;43.034;-0.072;2022-07-09T05:05:11;1.83;;;1.73;;
59514;SDS011;46082;43.034;-0.072;2022-07-09T05:07:38;3.05;;;2.17;;
59514;SDS011;46082;43.034;-0.072;2022-07-09T05:10:05;1.98;;;1.80;;
59514;SDS011;46082;43.034;-0.072;2022-07-09T05:12:31;2.28;;;2.08;;
59514;SDS011;46082;43.034;-0.072;2022-07-09T05:14:58;4.53;;;2.17;;
59514;SDS011;46082;43.034;-0.072;2022-07-09T05:17:24;2.33;;;2.13;;
59514;SDS011;46082;43.034;-0.072;2022-07-09T05:19:50;2.80;;;2.30;;
59514;SDS011;46082;43.034;-0.072;2022-07-09T05:22:16;3.05;;;2.13;;
59514;SDS011;46082;43.034;-0.072;2022-07-09T05:24:42;2.08;;;1.92;;
59514;SDS011;46082;43.034;-0.072;2022-07-09T05:27:09;1.73;;;1.63;;
59514;SDS011;46082;43.034;-0.072;2022-07-09T05:29:35;1.77;;;1.65;;
59514;SDS011;46082;43.034;-0.072;2022-07-09T05:32:02;3.85;;;2.05;;
59514;SDS011;46082;43.034;-0.072;2022-07-09T05:34:28;4.88;;;2.22;;
59514;SDS011;46082;43.034;-0.072;2022-07-09T05:36:54;2.38;;;2.17;;
59514;SDS011;46082;43.034;-0.072;2022-07-09T05:39:21;3.25;;;1.98;;
59514;SDS011;46082;43.034;-0.072;2022-07-09T05:41:47;5.15;;;2.30;;
59514;SDS011;46082;43.034;-0.072;2022-07-09T05:44:13;2.60;;;1.98;;
59514;SDS011;46082;43.034;-0.072;2022-07-09T05:46:40;2.40;;;2.20;;
59514;SDS011;46082;43.034;-0.072;2022-07-09T05:49:06;2.63;;;2.42;;
59514;SDS011;46082;43.034;-0.072;2022-07-09T05:51:33;2.58;;;2.30;;
59514;SDS011;46082;43.034;-0.072;2022-07-09T05:53:59;2.45;;;2.25;;
59514;SDS011;46082;43.034;-0.072;2022-07-09T05:56:25;2.60;;;2.40;;
59514;SDS011;46082;43.034;-0.072;2022-07-09T05:58:51;4.72;;;2.30;;
59514;SDS011;46082;43.034;-0.072;2022-07-09T06:01:18;2.42;;;2.22;;
59514;SDS011;46082;43.034;-0.072;2022-07-09T06:03:44;2.70;;;2.50;;
59514;SDS011;46082;43.034;-0.072;2022-07-09T06:06:12;2.30;;;2.10;;
59514;SDS011;46082;43.034;-0.072;2022-07-09T06:08:38;2.35;;;2.15;;
59514;SDS011;46082;43.034;-0.072;2022-07-09T06:11:05;2.60;;;2.40;;
59514;SDS011;46082;43.034;-0.072;2022-07-09T06:13:31;3.70;;;2.97;;
59514;SDS011;46082;43.034;-0.072;2022-07-09T06:15:57;3.22;;;2.58;;
59514;SDS011;46082;43.034;-0.072;2022-07-09T06:18:23;2.45;;;2.25;;
59514;SDS011;46082;43.034;-0.072;2022-07-09T06:20:50;2.72;;;2.53;;
59514;SDS011;46082;43.034;-0.072;2022-07-09T06:23:16;4.07;;;2.30;;
59514;SDS011;46082;43.034;-0.072;2022-07-09T06:25:42;2.38;;;2.17;;
59514;SDS011;46082;43.034;-0.072;2022-07-09T06:28:08;2.13;;;1.92;;
59514;SDS011;46082;43.034;-0.072;2022-07-09T06:30:34;2.40;;;2.20;;
59514;SDS011;46082;43.034;-0.072;2022-07-09T06:33:01;2.40;;;2.20;;
59514;SDS011;46082;43.034;-0.072;2022-07-09T06:35:27;2.03;;;1.90;;
59514;SDS011;46082;43.034;-0.072;2022-07-09T06:37:53;2.42;;;2.25;;
59514;SDS011;46082;43.034;-0.072;2022-07-09T06:40:19;2.35;;;2.10;;
59514;SDS011;46082;43.034;-0.072;2022-07-09T06:42:45;1.98;;;1.80;;
59514;SDS011;46082;43.034;-0.072;2022-07-09T06:45:11;4.20;;;1.98;;
59514;SDS011;46082;43.034;-0.072;2022-07-09T06:47:39;1.90;;;1.80;;
59514;SDS011;46082;43.034;-0.072;2022-07-09T06:50:06;2.70;;;2.28;;
59514;SDS011;46082;43.034;-0.072;2022-07-09T06:52:32;1.70;;;1.60;;
59514;SDS011;46082;43.034;-0.072;2022-07-09T06:54:58;2.75;;;2.05;;
59514;SDS011;46082;43.034;-0.072;2022-07-09T06:57:24;2.30;;;2.10;;
59514;SDS011;46082;43.034;-0.072;2022-07-09T06:59:51;2.20;;;2.00;;
59514;SDS011;46082;43.034;-0.072;2022-07-09T07:02:17;2.45;;;1.90;;
59514;SDS011;46082;43.034;-0.072;2022-07-09T07:04:43;3.88;;;2.38;;
59514;SDS011;46082;43.034;-0.072;2022-07-09T07:07:09;2.35;;;2.10;;
59514;SDS011;46082;43.034;-0.072;2022-07-09T07:09:36;2.17;;;1.92;;
59514;SDS011;46082;43.034;-0.072;2022-07-09T07:12:02;2.20;;;2.00;;
59514;SDS011;46082;43.034;-0.072;2022-07-09T07:14:28;1.88;;;1.70;;
59514;SDS011;46082;43.034;-0.072;2022-07-09T07:16:54;2.38;;;1.88;;
59514;SDS011;46082;43.034;-0.072;2022-07-09T07:19:20;2.72;;;1.90;;
59514;SDS011;46082;43.034;-0.072;2022-07-09T07:21:47;1.80;;;1.70;;
59514;SDS011;46082;43.034;-0.072;2022-07-09T07:24:13;2.03;;;1.77;;
59514;SDS011;46082;43.034;-0.072;2022-07-09T07:26:39;2.25;;;2.05;;
59514;SDS011;46082;43.034;-0.072;2022-07-09T07:29:06;2.40;;;2.20;;
59514;SDS011;46082;43.034;-0.072;2022-07-09T07:31:32;3.50;;;2.75;;
59514;SDS011;46082;43.034;-0.072;2022-07-09T07:33:58;2.60;;;2.35;;
59514;SDS011;46082;43.034;-0.072;2022-07-09T07:36:25;2.33;;;2.13;;
59514;SDS011;46082;43.034;-0.072;2022-07-09T07:38:51;3.15;;;2.10;;
59514;SDS011;46082;43.034;-0.072;2022-07-09T07:41:18;3.15;;;2.13;;
59514;SDS011;46082;43.034;-0.072;2022-07-09T07:43:45;2.35;;;2.15;;
59514;SDS011;46082;43.034;-0.072;2022-07-09T07:46:12;2.58;;;2.20;;
59514;SDS011;46082;43.034;-0.072;2022-07-09T07:48:38;2.22;;;2.03;;
59514;SDS011;46082;43.034;-0.072;2022-07-09T07:51:06;2.22;;;2.03;;
59514;SDS011;46082;43.034;-0.072;2022-07-09T07:53:33;2.30;;;2.10;;
59514;SDS011;46082;43.034;-0.072;2022-07-09T07:56:03;1.70;;;1.60;;
59514;SDS011;46082;43.034;-0.072;2022-07-09T07:58:29;2.42;;;2.15;;
59514;SDS011;46082;43.034;-0.072;2022-07-09T08:00:55;1.95;;;1.80;;
59514;SDS011;46082;43.034;-0.072;2022-07-09T08:03:21;2.15;;;1.95;;
59514;SDS011;46082;43.034;-0.072;2022-07-09T08:05:47;2.03;;;1.83;;
59514;SDS011;46082;43.034;-0.072;2022-07-09T08:08:13;1.55;;;1.45;;
59514;SDS011;46082;43.034;-0.072;2022-07-09T08:10:40;2.38;;;2.17;;
59514;SDS011;46082;43.034;-0.072;2022-07-09T08:13:06;2.78;;;1.98;;
59514;SDS011;46082;43.034;-0.072;2022-07-09T08:15:32;2.78;;;2.30;;
59514;SDS011;46082;43.034;-0.072;2022-07-09T08:17:58;2.28;;;1.92;;
59514;SDS011;46082;43.034;-0.072;2022-07-09T08:20:24;3.05;;;2.33;;
59514;SDS011;46082;43.034;-0.072;2022-07-09T08:22:50;2.10;;;1.90;;
59514;SDS011;46082;43.034;-0.072;2022-07-09T08:25:17;2.00;;;1.80;;
59514;SDS011;46082;43.034;-0.072;2022-07-09T08:27:43;5.10;;;1.70;;
59514;SDS011;46082;43.034;-0.072;2022-07-09T08:30:09;2.03;;;1.52;;
59514;SDS011;46082;43.034;-0.072;2022-07-09T08:32:36;1.65;;;1.52;;
59514;SDS011;46082;43.034;-0.072;2022-07-09T08:35:04;1.35;;;1.33;;
59514;SDS011;46082;43.034;-0.072;2022-07-09T08:37:30;1.85;;;1.70;;
59514;SDS011;46082;43.034;-0.072;2022-07-09T08:39:56;2.30;;;1.73;;
59514;SDS011;46082;43.034;-0.072;2022-07-09T08:42:22;1.60;;;1.50;;
59514;SDS011;46082;43.034;-0.072;2022-07-09T08:44:48;1.95;;;1.52;;
59514;SDS011;46082;43.034;-0.072;2022-07-09T08:47:14;1.77;;;1.55;;
59514;SDS011;46082;43.034;-0.072;2022-07-09T08:49:41;1.73;;;1.60;;
59514;SDS011;46082;43.034;-0.072;2022-07-09T08:52:08;1.35;;;1.25;;
59514;SDS011;46082;43.034;-0.072;2022-07-09T08:54:35;1.58;;;1.48;;
59514;SDS011;46082;43.034;-0.072;2022-07-09T08:57:05;1.50;;;1.40;;
59514;SDS011;46082;43.034;-0.072;2022-07-09T08:59:34;1.20;;;1.10;;
59514;SDS011;46082;43.034;-0.072;2022-07-09T09:02:04;1.50;;;1.30;;
59514;SDS011;46082;43.034;-0.072;2022-07-09T09:04:31;1.63;;;1.52;;
59514;SDS011;46082;43.034;-0.072;2022-07-09T09:06:59;2.25;;;1.70;;
59514;SDS011;46082;43.034;-0.072;2022-07-09T09:09:25;1.60;;;1.50;;
59514;SDS011;46082;43.034;-0.072;2022-07-09T09:11:51;2.10;;;1.27;;
59514;SDS011;46082;43.034;-0.072;2022-07-09T09:14:22;1.55;;;1.45;;
59514;SDS011;46082;43.034;-0.072;2022-07-09T09:16:48;2.13;;;1.60;;
59514;SDS011;46082;43.034;-0.072;2022-07-09T09:19:14;1.52;;;1.42;;
59514;SDS011;46082;43.034;-0.072;2022-07-09T09:21:40;1.35;;;1.25;;
59514;SDS011;46082;43.034;-0.072;2022-07-09T09:24:07;1.73;;;1.50;;
59514;SDS011;46082;43.034;-0.072;2022-07-09T09:26:33;1.88;;;1.60;;
59514;SDS011;46082;43.034;-0.072;2022-07-09T09:29:01;1.80;;;1.67;;
59514;SDS011;46082;43.034;-0.072;2022-07-09T09:33:54;1.70;;;1.60;;
59514;SDS011;46082;43.034;-0.072;2022-07-09T09:39:12;1.40;;;1.30;;
59514;SDS011;46082;43.034;-0.072;2022-07-09T09:41:39;1.40;;;1.30;;
59514;SDS011;46082;43.034;-0.072;2022-07-09T09:44:08;1.08;;;0.98;;
59514;SDS011;46082;43.034;-0.072;2022-07-09T09:46:36;1.20;;;1.10;;
59514;SDS011;46082;43.034;-0.072;2022-07-09T09:49:03;1.55;;;1.20;;
59514;SDS011;46082;43.034;-0.072;2022-07-09T09:51:34;1.40;;;1.30;;
59514;SDS011;46082;43.034;-0.072;2022-07-09T09:54:00;1.38;;;1.27;;
59514;SDS011;46082;43.034;-0.072;2022-07-09T09:56:27;1.25;;;1.15;;
59514;SDS011;46082;43.034;-0.072;2022-07-09T09:58:54;1.10;;;1.10;;
59514;SDS011;46082;43.034;-0.072;2022-07-09T10:01:20;1.70;;;1.13;;
59514;SDS011;46082;43.034;-0.072;2022-07-09T10:03:47;1.73;;;1.35;;
59514;SDS011;46082;43.034;-0.072;2022-07-09T10:06:14;1.33;;;1.20;;
59514;SDS011;46082;43.034;-0.072;2022-07-09T10:08:40;0.98;;;0.98;;
59514;SDS011;46082;43.034;-0.072;2022-07-09T10:11:06;1.10;;;1.00;;
59514;SDS011;46082;43.034;-0.072;2022-07-09T10:13:32;2.35;;;1.10;;
59514;SDS011;46082;43.034;-0.072;2022-07-09T10:15:59;1.58;;;0.93;;
59514;SDS011;46082;43.034;-0.072;2022-07-09T10:18:25;1.17;;;1.08;;
59514;SDS011;46082;43.034;-0.072;2022-07-09T10:20:55;1.48;;;1.35;;
59514;SDS011;46082;43.034;-0.072;2022-07-09T10:23:24;1.05;;;0.88;;
59514;SDS011;46082;43.034;-0.072;2022-07-09T10:25:51;1.58;;;1.10;;
59514;SDS011;46082;43.034;-0.072;2022-07-09T10:28:21;5.35;;;1.02;;
59514;SDS011;46082;43.034;-0.072;2022-07-09T10:30:50;0.88;;;0.80;;
59514;SDS011;46082;43.034;-0.072;2022-07-09T10:33:22;1.00;;;1.00;;
59514;SDS011;46082;43.034;-0.072;2022-07-09T10:35:49;1.55;;;1.27;;
59514;SDS011;46082;43.034;-0.072;2022-07-09T10:38:20;1.48;;;1.15;;
59514;SDS011;46082;43.034;-0.072;2022-07-09T10:40:57;1.08;;;1.00;;
59514;SDS011;46082;43.034;-0.072;2022-07-09T10:46:12;1.67;;;0.93;;
59514;SDS011;46082;43.034;-0.072;2022-07-09T10:48:38;1.40;;;1.20;;
59514;SDS011;46082;43.034;-0.072;2022-07-09T10:51:04;1.17;;;1.08;;
59514;SDS011;46082;43.034;-0.072;2022-07-09T10:53:30;0.90;;;0.90;;
59514;SDS011;46082;43.034;-0.072;2022-07-09T10:55:57;1.25;;;1.15;;
59514;SDS011;46082;43.034;-0.072;2022-07-09T10:58:24;2.50;;;1.15;;
59514;SDS011;46082;43.034;-0.072;2022-07-09T11:01:00;1.20;;;1.10;;
59514;SDS011;46082;43.034;-0.072;2022-07-09T11:03:30;1.27;;;0.90;;
59514;SDS011;46082;43.034;-0.072;2022-07-09T11:05:57;1.13;;;1.10;;
59514;SDS011;46082;43.034;-0.072;2022-07-09T11:08:23;2.50;;;1.10;;
59514;SDS011;46082;43.034;-0.072;2022-07-09T11:10:50;2.38;;;1.20;;
59514;SDS011;46082;43.034;-0.072;2022-07-09T11:13:16;1.45;;;1.23;;
59514;SDS011;46082;43.034;-0.072;2022-07-09T11:15:42;1.27;;;0.98;;
59514;SDS011;46082;43.034;-0.072;2022-07-09T11:18:09;1.20;;;1.10;;
59514;SDS011;46082;43.034;-0.072;2022-07-09T11:20:42;1.20;;;1.10;;
59514;SDS011;46082;43.034;-0.072;2022-07-09T11:23:09;1.08;;;0.82;;
59514;SDS011;46082;43.034;-0.072;2022-07-09T11:25:36;1.50;;;1.13;;
59514;SDS011;46082;43.034;-0.072;2022-07-09T11:28:02;1.35;;;1.25;;
59514;SDS011;46082;43.034;-0.072;2022-07-09T11:30:29;1.10;;;1.00;;
59514;SDS011;46082;43.034;-0.072;2022-07-09T11:32:57;0.85;;;0.73;;
59514;SDS011;46082;43.034;-0.072;2022-07-09T11:37:50;1.30;;;1.17;;
59514;SDS011;46082;43.034;-0.072;2022-07-09T11:40:17;1.25;;;0.80;;
59514;SDS011;46082;43.034;-0.072;2022-07-09T11:42:43;2.58;;;0.88;;
59514;SDS011;46082;43.034;-0.072;2022-07-09T11:45:09;1.50;;;1.10;;
59514;SDS011;46082;43.034;-0.072;2022-07-09T11:47:37;1.10;;;1.02;;
59514;SDS011;46082;43.034;-0.072;2022-07-09T11:50:08;1.00;;;0.98;;
59514;SDS011;46082;43.034;-0.072;2022-07-09T11:52:35;1.05;;;1.00;;
59514;SDS011;46082;43.034;-0.072;2022-07-09T11:55:05;1.00;;;1.00;;
59514;SDS011;46082;43.034;-0.072;2022-07-09T11:57:32;1.05;;;0.93;;
59514;SDS011;46082;43.034;-0.072;2022-07-09T11:59:59;2.10;;;1.02;;
59514;SDS011;46082;43.034;-0.072;2022-07-09T12:02:35;1.63;;;1.10;;
59514;SDS011;46082;43.034;-0.072;2022-07-09T12:05:10;2.03;;;1.08;;
59514;SDS011;46082;43.034;-0.072;2022-07-09T12:07:37;0.80;;;0.80;;
59514;SDS011;46082;43.034;-0.072;2022-07-09T12:10:07;0.90;;;0.90;;
59514;SDS011;46082;43.034;-0.072;2022-07-09T12:12:34;1.33;;;1.10;;
59514;SDS011;46082;43.034;-0.072;2022-07-09T12:15:02;1.05;;;1.00;;
59514;SDS011;46082;43.034;-0.072;2022-07-09T12:17:29;1.90;;;0.93;;
59514;SDS011;46082;43.034;-0.072;2022-07-09T12:19:56;0.95;;;0.95;;
59514;SDS011;46082;43.034;-0.072;2022-07-09T12:22:23;0.93;;;0.88;;
59514;SDS011;46082;43.034;-0.072;2022-07-09T12:24:49;1.55;;;1.00;;
59514;SDS011;46082;43.034;-0.072;2022-07-09T12:27:15;0.77;;;0.77;;
59514;SDS011;46082;43.034;-0.072;2022-07-09T12:29:41;1.50;;;1.02;;
59514;SDS011;46082;43.034;-0.072;2022-07-09T12:32:08;1.05;;;0.95;;
59514;SDS011;46082;43.034;-0.072;2022-07-09T12:34:34;0.98;;;0.98;;
59514;SDS011;46082;43.034;-0.072;2022-07-09T12:37:00;1.23;;;1.13;;
59514;SDS011;46082;43.034;-0.072;2022-07-09T12:39:26;1.35;;;1.15;;
59514;SDS011;46082;43.034;-0.072;2022-07-09T12:41:52;1.70;;;1.20;;
59514;SDS011;46082;43.034;-0.072;2022-07-09T12:44:19;0.90;;;0.90;;
59514;SDS011;46082;43.034;-0.072;2022-07-09T12:46:45;1.10;;;1.00;;
59514;SDS011;46082;43.034;-0.072;2022-07-09T12:49:11;0.70;;;0.70;;
59514;SDS011;46082;43.034;-0.072;2022-07-09T12:51:37;1.88;;;1.08;;
59514;SDS011;46082;43.034;-0.072;2022-07-09T12:54:04;0.85;;;0.85;;
59514;SDS011;46082;43.034;-0.072;2022-07-09T12:56:30;1.20;;;0.80;;
59514;SDS011;46082;43.034;-0.072;2022-07-09T12:58:56;1.10;;;1.10;;
59514;SDS011;46082;43.034;-0.072;2022-07-09T13:01:22;1.60;;;1.20;;
59514;SDS011;46082;43.034;-0.072;2022-07-09T13:03:48;5.03;;;1.00;;
59514;SDS011;46082;43.034;-0.072;2022-07-09T13:06:15;1.48;;;1.20;;
59514;SDS011;46082;43.034;-0.072;2022-07-09T13:08:56;4.15;;;1.10;;
59514;SDS011;46082;43.034;-0.072;2022-07-09T13:11:23;1.02;;;1.00;;
59514;SDS011;46082;43.034;-0.072;2022-07-09T13:13:49;1.17;;;1.00;;
59514;SDS011;46082;43.034;-0.072;2022-07-09T13:16:15;4.53;;;1.13;;
59514;SDS011;46082;43.034;-0.072;2022-07-09T13:18:41;1.20;;;1.00;;
59514;SDS011;46082;43.034;-0.072;2022-07-09T13:21:08;3.95;;;1.60;;
59514;SDS011;46082;43.034;-0.072;2022-07-09T13:23:34;1.15;;;1.05;;
59514;SDS011;46082;43.034;-0.072;2022-07-09T13:26:00;1.20;;;1.10;;
59514;SDS011;46082;43.034;-0.072;2022-07-09T13:28:26;1.23;;;1.13;;
59514;SDS011;46082;43.034;-0.072;2022-07-09T13:30:52;1.63;;;1.05;;
59514;SDS011;46082;43.034;-0.072;2022-07-09T13:33:19;1.02;;;1.02;;
59514;SDS011;46082;43.034;-0.072;2022-07-09T13:35:45;1.40;;;1.08;;
59514;SDS011;46082;43.034;-0.072;2022-07-09T13:38:11;3.08;;;1.40;;
59514;SDS011;46082;43.034;-0.072;2022-07-09T13:40:38;2.15;;;1.10;;
59514;SDS011;46082;43.034;-0.072;2022-07-09T13:43:04;2.78;;;1.48;;
59514;SDS011;46082;43.034;-0.072;2022-07-09T13:45:30;3.08;;;1.60;;
59514;SDS011;46082;43.034;-0.072;2022-07-09T13:47:56;2.08;;;1.30;;
59514;SDS011;46082;43.034;-0.072;2022-07-09T13:50:22;1.80;;;1.30;;
59514;SDS011;46082;43.034;-0.072;2022-07-09T13:52:48;1.17;;;1.08;;
59514;SDS011;46082;43.034;-0.072;2022-07-09T13:55:15;3.63;;;1.05;;
59514;SDS011;46082;43.034;-0.072;2022-07-09T13:57:41;1.30;;;1.20;;
59514;SDS011;46082;43.034;-0.072;2022-07-09T14:00:07;1.42;;;1.33;;
59514;SDS011;46082;43.034;-0.072;2022-07-09T14:02:34;1.67;;;1.15;;
59514;SDS011;46082;43.034;-0.072;2022-07-09T14:05:00;1.20;;;1.10;;
59514;SDS011;46082;43.034;-0.072;2022-07-09T14:07:27;0.90;;;0.90;;
59514;SDS011;46082;43.034;-0.072;2022-07-09T14:09:53;2.17;;;1.00;;
59514;SDS011;46082;43.034;-0.072;2022-07-09T14:12:19;1.10;;;1.00;;
59514;SDS011;46082;43.034;-0.072;2022-07-09T14:14:48;1.30;;;1.20;;
59514;SDS011;46082;43.034;-0.072;2022-07-09T14:17:14;1.58;;;1.10;;
59514;SDS011;46082;43.034;-0.072;2022-07-09T14:19:40;1.50;;;1.40;;
59514;SDS011;46082;43.034;-0.072;2022-07-09T14:22:07;2.05;;;1.20;;
59514;SDS011;46082;43.034;-0.072;2022-07-09T14:24:33;1.15;;;1.05;;
59514;SDS011;46082;43.034;-0.072;2022-07-09T14:26:59;1.10;;;1.10;;
59514;SDS011;46082;43.034;-0.072;2022-07-09T14:29:25;1.23;;;1.13;;
59514;SDS011;46082;43.034;-0.072;2022-07-09T14:31:52;1.75;;;1.33;;
59514;SDS011;46082;43.034;-0.072;2022-07-09T14:34:18;1.48;;;1.38;;
59514;SDS011;46082;43.034;-0.072;2022-07-09T14:36:45;1.25;;;1.08;;
59514;SDS011;46082;43.034;-0.072;2022-07-09T14:39:11;1.60;;;1.23;;